sensor_id;sensor_type;location;lat;lon;timestamp;temperature;humidity
25140;DHT22;39015;48.106;-1.682;2022-11-15T07:18:32;15.80;90.60
25140;DHT22;39015;48.106;-1.682;2022-11-15T07:21:01;15.70;90.50
25140;DHT22;39015;48.106;-1.682;2022-11-15T07:23:28;15.70;90.60
25140;DHT22;39015;48.106;-1.682;2022-11-15T07:25:56;15.80;90.60
25140;DHT22;39015;48.106;-1.682;2022-11-15T07:28:23;15.70;90.60
25140;DHT22;39015;48.106;-1.682;2022-11-15T07:30:49;15.70;90.80
25140;DHT22;39015;48.106;-1.682;2022-11-15T07:33:16;15.80;90.70
25140;DHT22;39015;48.106;-1.682;2022-11-15T07:35:44;15.70;90.60
25140;DHT22;39015;48.106;-1.682;2022-11-15T07:38:14;15.70;90.70
25140;DHT22;39015;48.106;-1.682;2022-11-15T07:40:44;15.70;90.60
25140;DHT22;39015;48.106;-1.682;2022-11-15T07:43:11;15.80;90.70
25140;DHT22;39015;48.106;-1.682;2022-11-15T07:45:40;15.70;90.60
25140;DHT22;39015;48.106;-1.682;2022-11-15T07:48:07;15.70;90.70
25140;DHT22;39015;48.106;-1.682;2022-11-15T07:50:34;15.70;90.70
25140;DHT22;39015;48.106;-1.682;2022-11-15T07:53:02;15.70;90.80
25140;DHT22;39015;48.106;-1.682;2022-11-15T07:55:29;15.70;90.90
25140;DHT22;39015;48.106;-1.682;2022-11-15T07:57:59;15.70;90.80
25140;DHT22;39015;48.106;-1.682;2022-11-15T08:00:26;15.70;90.90
25140;DHT22;39015;48.106;-1.682;2022-11-15T08:02:56;15.70;90.90
25140;DHT22;39015;48.106;-1.682;2022-11-15T08:05:27;15.80;91.00
25140;DHT22;39015;48.106;-1.682;2022-11-15T08:07:54;15.70;91.00
25140;DHT22;39015;48.106;-1.682;2022-11-15T08:10:23;15.70;91.00
25140;DHT22;39015;48.106;-1.682;2022-11-15T08:12:56;15.70;91.10
25140;DHT22;39015;48.106;-1.682;2022-11-15T08:15:22;15.70;91.20
25140;DHT22;39015;48.106;-1.682;2022-11-15T08:17:52;15.70;91.20
25140;DHT22;39015;48.106;-1.682;2022-11-15T08:20:19;15.70;91.30
25140;DHT22;39015;48.106;-1.682;2022-11-15T08:22:46;15.70;91.40
25140;DHT22;39015;48.106;-1.682;2022-11-15T08:25:13;15.70;91.40
25140;DHT22;39015;48.106;-1.682;2022-11-15T08:27:41;15.70;91.50
25140;DHT22;39015;48.106;-1.682;2022-11-15T08:30:08;15.70;91.50
25140;DHT22;39015;48.106;-1.682;2022-11-15T08:32:35;15.70;91.50
25140;DHT22;39015;48.106;-1.682;2022-11-15T08:35:02;15.60;91.60
25140;DHT22;39015;48.106;-1.682;2022-11-15T08:37:29;15.70;91.60
25140;DHT22;39015;48.106;-1.682;2022-11-15T08:39:56;15.70;91.60
25140;DHT22;39015;48.106;-1.682;2022-11-15T08:42:23;15.70;91.70
25140;DHT22;39015;48.106;-1.682;2022-11-15T08:44:51;15.70;91.70
25140;DHT22;39015;48.106;-1.682;2022-11-15T08:47:18;15.70;91.70
25140;DHT22;39015;48.106;-1.682;2022-11-15T08:49:44;15.70;91.90
25140;DHT22;39015;48.106;-1.682;2022-11-15T08:52:11;15.70;92.00
25140;DHT22;39015;48.106;-1.682;2022-11-15T08:54:38;15.70;92.00
25140;DHT22;39015;48.106;-1.682;2022-11-15T08:57:05;15.70;92.00
25140;DHT22;39015;48.106;-1.682;2022-11-15T08:59:34;15.70;92.10
25140;DHT22;39015;48.106;-1.682;2022-11-15T09:02:03;15.70;92.10
25140;DHT22;39015;48.106;-1.682;2022-11-15T09:04:30;15.70;92.10
25140;DHT22;39015;48.106;-1.682;2022-11-15T09:06:57;15.70;92.10
25140;DHT22;39015;48.106;-1.682;2022-11-15T09:09:24;15.70;92.20
25140;DHT22;39015;48.106;-1.682;2022-11-15T09:11:50;15.70;92.20
25140;DHT22;39015;48.106;-1.682;2022-11-15T09:14:17;15.70;92.30
25140;DHT22;39015;48.106;-1.682;2022-11-15T09:16:44;15.70;92.30
25140;DHT22;39015;48.106;-1.682;2022-11-15T09:19:12;15.70;92.30
25140;DHT22;39015;48.106;-1.682;2022-11-15T09:21:40;15.70;92.30
25140;DHT22;39015;48.106;-1.682;2022-11-15T09:24:07;15.70;92.30
25140;DHT22;39015;48.106;-1.682;2022-11-15T09:26:34;15.80;92.30
25140;DHT22;39015;48.106;-1.682;2022-11-15T09:29:01;15.70;92.30
25140;DHT22;39015;48.106;-1.682;2022-11-15T09:31:31;15.70;92.30
25140;DHT22;39015;48.106;-1.682;2022-11-15T09:33:58;15.70;92.30
25140;DHT22;39015;48.106;-1.682;2022-11-15T09:36:26;15.70;92.30
25140;DHT22;39015;48.106;-1.682;2022-11-15T09:38:53;15.70;92.30
25140;DHT22;39015;48.106;-1.682;2022-11-15T09:41:25;15.70;92.30
25140;DHT22;39015;48.106;-1.682;2022-11-15T09:43:55;15.80;92.50
25140;DHT22;39015;48.106;-1.682;2022-11-15T09:46:29;15.80;92.50
25140;DHT22;39015;48.106;-1.682;2022-11-15T09:48:59;15.70;92.60
25140;DHT22;39015;48.106;-1.682;2022-11-15T09:51:30;15.80;92.60
25140;DHT22;39015;48.106;-1.682;2022-11-15T09:54:03;15.80;92.60
25140;DHT22;39015;48.106;-1.682;2022-11-15T09:56:32;15.80;92.60
25140;DHT22;39015;48.106;-1.682;2022-11-15T09:59:04;15.80;92.70
25140;DHT22;39015;48.106;-1.682;2022-11-15T10:01:36;15.80;92.80
25140;DHT22;39015;48.106;-1.682;2022-11-15T10:04:05;15.80;92.80
25140;DHT22;39015;48.106;-1.682;2022-11-15T10:06:34;15.80;92.80
25140;DHT22;39015;48.106;-1.682;2022-11-15T10:09:05;15.80;92.80
25140;DHT22;39015;48.106;-1.682;2022-11-15T10:11:35;15.80;92.90
25140;DHT22;39015;48.106;-1.682;2022-11-15T10:14:02;15.80;92.90
25140;DHT22;39015;48.106;-1.682;2022-11-15T10:16:40;15.80;92.90
25140;DHT22;39015;48.106;-1.682;2022-11-15T10:19:11;15.80;93.00
25140;DHT22;39015;48.106;-1.682;2022-11-15T10:21:46;15.80;92.90
25140;DHT22;39015;48.106;-1.682;2022-11-15T10:24:17;15.80;93.00
25140;DHT22;39015;48.106;-1.682;2022-11-15T10:26:45;15.80;93.00
25140;DHT22;39015;48.106;-1.682;2022-11-15T10:29:17;15.80;93.10
25140;DHT22;39015;48.106;-1.682;2022-11-15T10:31:44;15.80;93.10
25140;DHT22;39015;48.106;-1.682;2022-11-15T10:34:12;15.80;93.10
25140;DHT22;39015;48.106;-1.682;2022-11-15T10:36:41;15.80;93.20
25140;DHT22;39015;48.106;-1.682;2022-11-15T10:39:11;15.80;93.20
25140;DHT22;39015;48.106;-1.682;2022-11-15T10:41:39;15.80;93.20
25140;DHT22;39015;48.106;-1.682;2022-11-15T10:44:22;15.80;93.20
25140;DHT22;39015;48.106;-1.682;2022-11-15T10:47:04;15.90;93.30
25140;DHT22;39015;48.106;-1.682;2022-11-15T10:49:31;15.90;93.30
25140;DHT22;39015;48.106;-1.682;2022-11-15T10:52:00;15.90;93.30
25140;DHT22;39015;48.106;-1.682;2022-11-15T10:54:28;15.90;93.30
25140;DHT22;39015;48.106;-1.682;2022-11-15T10:56:57;15.90;93.30
25140;DHT22;39015;48.106;-1.682;2022-11-15T10:59:25;15.90;93.30
25140;DHT22;39015;48.106;-1.682;2022-11-15T11:01:53;15.90;93.30
25140;DHT22;39015;48.106;-1.682;2022-11-15T11:04:20;15.90;93.30
25140;DHT22;39015;48.106;-1.682;2022-11-15T11:06:48;15.90;93.20
25140;DHT22;39015;48.106;-1.682;2022-11-15T11:09:23;16.00;93.50
25140;DHT22;39015;48.106;-1.682;2022-11-15T11:11:53;16.00;93.40
25140;DHT22;39015;48.106;-1.682;2022-11-15T11:14:21;16.00;93.30
25140;DHT22;39015;48.106;-1.682;2022-11-15T11:16:49;16.00;93.40
25140;DHT22;39015;48.106;-1.682;2022-11-15T11:19:28;16.00;93.30
25140;DHT22;39015;48.106;-1.682;2022-11-15T11:22:09;16.00;93.30
25140;DHT22;39015;48.106;-1.682;2022-11-15T11:24:41;16.00;93.40
25140;DHT22;39015;48.106;-1.682;2022-11-15T11:27:22;16.00;93.40
25140;DHT22;39015;48.106;-1.682;2022-11-15T11:29:57;16.00;93.40
25140;DHT22;39015;48.106;-1.682;2022-11-15T11:32:30;16.00;93.40
25140;DHT22;39015;48.106;-1.682;2022-11-15T11:35:03;16.10;93.40
25140;DHT22;39015;48.106;-1.682;2022-11-15T11:37:35;16.00;93.40
25140;DHT22;39015;48.106;-1.682;2022-11-15T11:40:10;16.10;93.50
25140;DHT22;39015;48.106;-1.682;2022-11-15T11:42:41;16.10;93.40
25140;DHT22;39015;48.106;-1.682;2022-11-15T11:45:15;16.10;93.40
25140;DHT22;39015;48.106;-1.682;2022-11-15T11:47:46;16.10;93.40
25140;DHT22;39015;48.106;-1.682;2022-11-15T11:50:15;16.10;93.40
25140;DHT22;39015;48.106;-1.682;2022-11-15T11:52:48;16.10;93.50
25140;DHT22;39015;48.106;-1.682;2022-11-15T11:55:21;16.20;93.50
25140;DHT22;39015;48.106;-1.682;2022-11-15T11:57:53;16.20;93.50
25140;DHT22;39015;48.106;-1.682;2022-11-15T12:00:24;16.20;93.60
25140;DHT22;39015;48.106;-1.682;2022-11-15T12:02:56;16.20;93.50
25140;DHT22;39015;48.106;-1.682;2022-11-15T12:05:28;16.30;93.50
25140;DHT22;39015;48.106;-1.682;2022-11-15T12:07:59;16.20;93.40
25140;DHT22;39015;48.106;-1.682;2022-11-15T12:10:30;16.30;93.40
25140;DHT22;39015;48.106;-1.682;2022-11-15T12:13:00;16.30;93.40
25140;DHT22;39015;48.106;-1.682;2022-11-15T12:15:30;16.30;93.40
25140;DHT22;39015;48.106;-1.682;2022-11-15T12:17:58;16.30;93.40
25140;DHT22;39015;48.106;-1.682;2022-11-15T12:20:27;16.30;93.40
25140;DHT22;39015;48.106;-1.682;2022-11-15T12:22:55;16.40;93.40
25140;DHT22;39015;48.106;-1.682;2022-11-15T12:25:25;16.40;93.30
25140;DHT22;39015;48.106;-1.682;2022-11-15T12:27:56;16.40;93.30
25140;DHT22;39015;48.106;-1.682;2022-11-15T12:30:23;16.40;93.20
25140;DHT22;39015;48.106;-1.682;2022-11-15T12:32:52;16.40;93.30
25140;DHT22;39015;48.106;-1.682;2022-11-15T12:35:24;16.40;93.20
25140;DHT22;39015;48.106;-1.682;2022-11-15T12:37:52;16.40;93.30
25140;DHT22;39015;48.106;-1.682;2022-11-15T12:40:22;16.40;93.20
25140;DHT22;39015;48.106;-1.682;2022-11-15T12:43:04;16.40;93.30
25140;DHT22;39015;48.106;-1.682;2022-11-15T12:45:32;16.50;93.30
25140;DHT22;39015;48.106;-1.682;2022-11-15T12:50:53;16.50;93.20
25140;DHT22;39015;48.106;-1.682;2022-11-15T12:53:27;16.50;93.10
25140;DHT22;39015;48.106;-1.682;2022-11-15T12:56:08;16.50;93.00
25140;DHT22;39015;48.106;-1.682;2022-11-15T12:58:44;16.60;93.00
25140;DHT22;39015;48.106;-1.682;2022-11-15T13:01:51;16.60;93.00
25140;DHT22;39015;48.106;-1.682;2022-11-15T13:04:08;16.60;93.00
25140;DHT22;39015;48.106;-1.682;2022-11-15T13:06:37;16.60;92.90
25140;DHT22;39015;48.106;-1.682;2022-11-15T13:09:49;16.60;93.00
25140;DHT22;39015;48.106;-1.682;2022-11-15T13:11:55;16.70;92.90
25140;DHT22;39015;48.106;-1.682;2022-11-15T13:14:39;16.70;92.90
25140;DHT22;39015;48.106;-1.682;2022-11-15T13:17:21;16.70;92.90
25140;DHT22;39015;48.106;-1.682;2022-11-15T13:19:52;16.70;92.80
25140;DHT22;39015;48.106;-1.682;2022-11-15T13:22:20;16.70;92.90
25140;DHT22;39015;48.106;-1.682;2022-11-15T13:25:05;16.60;92.80
25140;DHT22;39015;48.106;-1.682;2022-11-15T13:27:42;16.60;92.90
25140;DHT22;39015;48.106;-1.682;2022-11-15T13:30:12;16.60;92.90
25140;DHT22;39015;48.106;-1.682;2022-11-15T13:32:40;16.60;92.90
25140;DHT22;39015;48.106;-1.682;2022-11-15T13:35:07;16.60;92.90
25140;DHT22;39015;48.106;-1.682;2022-11-15T13:37:35;16.60;92.90
25140;DHT22;39015;48.106;-1.682;2022-11-15T13:42:49;16.60;92.90
25140;DHT22;39015;48.106;-1.682;2022-11-15T13:45:17;16.60;92.90
25140;DHT22;39015;48.106;-1.682;2022-11-15T13:47:44;16.60;92.80
25140;DHT22;39015;48.106;-1.682;2022-11-15T13:50:11;16.60;92.80
25140;DHT22;39015;48.106;-1.682;2022-11-15T13:52:38;16.60;92.80
25140;DHT22;39015;48.106;-1.682;2022-11-15T13:55:09;16.60;92.80
25140;DHT22;39015;48.106;-1.682;2022-11-15T13:57:39;16.60;92.80
25140;DHT22;39015;48.106;-1.682;2022-11-15T14:02:51;16.60;92.80
25140;DHT22;39015;48.106;-1.682;2022-11-15T14:05:18;16.60;92.80
25140;DHT22;39015;48.106;-1.682;2022-11-15T14:07:52;16.60;92.80
25140;DHT22;39015;48.106;-1.682;2022-11-15T14:10:24;16.60;92.80
25140;DHT22;39015;48.106;-1.682;2022-11-15T14:12:51;16.60;92.80
25140;DHT22;39015;48.106;-1.682;2022-11-15T14:15:19;16.60;92.90
25140;DHT22;39015;48.106;-1.682;2022-11-15T14:17:52;16.60;92.90
25140;DHT22;39015;48.106;-1.682;2022-11-15T14:20:20;16.60;92.90
25140;DHT22;39015;48.106;-1.682;2022-11-15T14:22:51;16.60;92.80
25140;DHT22;39015;48.106;-1.682;2022-11-15T14:25:19;16.60;92.80
25140;DHT22;39015;48.106;-1.682;2022-11-15T14:30:28;16.60;92.80
25140;DHT22;39015;48.106;-1.682;2022-11-15T14:32:56;16.60;92.80
25140;DHT22;39015;48.106;-1.682;2022-11-15T14:35:23;16.60;92.80
25140;DHT22;39015;48.106;-1.682;2022-11-15T14:37:50;16.60;92.90
25140;DHT22;39015;48.106;-1.682;2022-11-15T14:40:17;16.70;92.90
25140;DHT22;39015;48.106;-1.682;2022-11-15T14:42:45;16.70;92.80
25140;DHT22;39015;48.106;-1.682;2022-11-15T14:45:13;16.70;92.70
25140;DHT22;39015;48.106;-1.682;2022-11-15T14:47:40;16.70;92.70
25140;DHT22;39015;48.106;-1.682;2022-11-15T14:50:12;16.80;92.60
25140;DHT22;39015;48.106;-1.682;2022-11-15T14:52:39;16.80;92.60
25140;DHT22;39015;48.106;-1.682;2022-11-15T14:55:11;16.80;92.50
25140;DHT22;39015;48.106;-1.682;2022-11-15T14:57:39;16.80;92.50
25140;DHT22;39015;48.106;-1.682;2022-11-15T15:00:07;16.80;92.40
25140;DHT22;39015;48.106;-1.682;2022-11-15T15:02:35;16.80;92.40
25140;DHT22;39015;48.106;-1.682;2022-11-15T15:05:09;16.80;92.40
25140;DHT22;39015;48.106;-1.682;2022-11-15T15:07:40;16.80;92.30
25140;DHT22;39015;48.106;-1.682;2022-11-15T15:10:07;16.80;92.20
25140;DHT22;39015;48.106;-1.682;2022-11-15T15:12:34;16.80;92.20
25140;DHT22;39015;48.106;-1.682;2022-11-15T15:15:01;16.80;92.10
25140;DHT22;39015;48.106;-1.682;2022-11-15T15:17:28;16.80;92.10
25140;DHT22;39015;48.106;-1.682;2022-11-15T15:19:55;16.80;92.00
25140;DHT22;39015;48.106;-1.682;2022-11-15T15:22:21;16.80;92.00
25140;DHT22;39015;48.106;-1.682;2022-11-15T15:24:52;16.80;92.00
25140;DHT22;39015;48.106;-1.682;2022-11-15T15:27:18;16.80;92.00
25140;DHT22;39015;48.106;-1.682;2022-11-15T15:29:45;16.80;91.90
25140;DHT22;39015;48.106;-1.682;2022-11-15T15:32:12;16.80;91.90
25140;DHT22;39015;48.106;-1.682;2022-11-15T15:34:39;16.80;91.90
25140;DHT22;39015;48.106;-1.682;2022-11-15T15:37:07;16.80;91.90
25140;DHT22;39015;48.106;-1.682;2022-11-15T15:39:34;16.80;91.90
25140;DHT22;39015;48.106;-1.682;2022-11-15T15:42:03;16.80;91.80
25140;DHT22;39015;48.106;-1.682;2022-11-15T15:44:30;16.80;91.80
25140;DHT22;39015;48.106;-1.682;2022-11-15T15:46:57;16.80;91.70
25140;DHT22;39015;48.106;-1.682;2022-11-15T15:49:25;16.80;91.70
25140;DHT22;39015;48.106;-1.682;2022-11-15T15:51:53;16.80;91.70
25140;DHT22;39015;48.106;-1.682;2022-11-15T15:54:21;16.80;91.70
25140;DHT22;39015;48.106;-1.682;2022-11-15T15:56:52;16.80;91.70
25140;DHT22;39015;48.106;-1.682;2022-11-15T15:59:21;16.80;91.60
25140;DHT22;39015;48.106;-1.682;2022-11-15T16:01:49;16.80;91.50
25140;DHT22;39015;48.106;-1.682;2022-11-15T16:04:16;16.80;91.60
25140;DHT22;39015;48.106;-1.682;2022-11-15T16:06:42;16.80;91.50
25140;DHT22;39015;48.106;-1.682;2022-11-15T16:09:12;16.80;91.50
25140;DHT22;39015;48.106;-1.682;2022-11-15T16:11:39;16.80;91.40
25140;DHT22;39015;48.106;-1.682;2022-11-15T16:14:06;16.80;91.40
25140;DHT22;39015;48.106;-1.682;2022-11-15T16:16:35;16.80;91.40
25140;DHT22;39015;48.106;-1.682;2022-11-15T16:19:02;16.80;91.30
25140;DHT22;39015;48.106;-1.682;2022-11-15T16:21:30;16.80;91.20
25140;DHT22;39015;48.106;-1.682;2022-11-15T16:23:57;16.80;91.20
25140;DHT22;39015;48.106;-1.682;2022-11-15T16:26:26;16.80;91.10
25140;DHT22;39015;48.106;-1.682;2022-11-15T16:28:55;16.80;91.10
25140;DHT22;39015;48.106;-1.682;2022-11-15T16:31:22;16.70;91.10
25140;DHT22;39015;48.106;-1.682;2022-11-15T16:33:51;16.70;91.10
25140;DHT22;39015;48.106;-1.682;2022-11-15T16:36:20;16.80;91.10
25140;DHT22;39015;48.106;-1.682;2022-11-15T16:38:47;16.70;91.00
25140;DHT22;39015;48.106;-1.682;2022-11-15T16:41:14;16.70;91.00
25140;DHT22;39015;48.106;-1.682;2022-11-15T16:43:43;16.70;90.90
25140;DHT22;39015;48.106;-1.682;2022-11-15T16:46:12;16.70;90.90
25140;DHT22;39015;48.106;-1.682;2022-11-15T16:48:40;16.70;90.90
25140;DHT22;39015;48.106;-1.682;2022-11-15T16:51:08;16.70;90.80
25140;DHT22;39015;48.106;-1.682;2022-11-15T16:53:35;16.70;90.80
25140;DHT22;39015;48.106;-1.682;2022-11-15T16:56:02;16.70;90.80
25140;DHT22;39015;48.106;-1.682;2022-11-15T16:58:29;16.70;90.90
25140;DHT22;39015;48.106;-1.682;2022-11-15T17:00:57;16.70;90.70
25140;DHT22;39015;48.106;-1.682;2022-11-15T17:03:24;16.70;90.60
25140;DHT22;39015;48.106;-1.682;2022-11-15T17:05:51;16.70;90.60
25140;DHT22;39015;48.106;-1.682;2022-11-15T17:08:19;16.80;90.50
25140;DHT22;39015;48.106;-1.682;2022-11-15T17:10:48;16.80;90.50
25140;DHT22;39015;48.106;-1.682;2022-11-15T17:13:16;16.80;90.40
25140;DHT22;39015;48.106;-1.682;2022-11-15T17:15:46;16.80;90.80
25140;DHT22;39015;48.106;-1.682;2022-11-15T17:18:13;16.80;90.40
25140;DHT22;39015;48.106;-1.682;2022-11-15T17:20:40;16.80;90.30
25140;DHT22;39015;48.106;-1.682;2022-11-15T17:23:08;16.80;90.40
25140;DHT22;39015;48.106;-1.682;2022-11-15T17:25:40;16.80;90.10
25140;DHT22;39015;48.106;-1.682;2022-11-15T17:28:07;16.80;90.00
25140;DHT22;39015;48.106;-1.682;2022-11-15T17:30:34;16.80;90.00
25140;DHT22;39015;48.106;-1.682;2022-11-15T17:33:01;16.80;90.00
25140;DHT22;39015;48.106;-1.682;2022-11-15T17:35:28;16.80;90.00
25140;DHT22;39015;48.106;-1.682;2022-11-15T17:37:54;16.70;89.90
25140;DHT22;39015;48.106;-1.682;2022-11-15T17:40:21;16.70;89.90
25140;DHT22;39015;48.106;-1.682;2022-11-15T17:42:49;16.70;89.90
25140;DHT22;39015;48.106;-1.682;2022-11-15T17:45:16;16.70;89.70
25140;DHT22;39015;48.106;-1.682;2022-11-15T17:47:43;16.70;89.40
25140;DHT22;39015;48.106;-1.682;2022-11-15T17:50:10;16.70;89.60
25140;DHT22;39015;48.106;-1.682;2022-11-15T17:52:37;16.70;89.40
25140;DHT22;39015;48.106;-1.682;2022-11-15T17:55:04;16.70;89.30
25140;DHT22;39015;48.106;-1.682;2022-11-15T17:57:30;16.70;89.30
25140;DHT22;39015;48.106;-1.682;2022-11-15T17:59:59;16.70;89.20
25140;DHT22;39015;48.106;-1.682;2022-11-15T18:02:25;16.70;89.20
25140;DHT22;39015;48.106;-1.682;2022-11-15T18:04:52;16.70;89.20
25140;DHT22;39015;48.106;-1.682;2022-11-15T18:07:19;16.70;89.10
25140;DHT22;39015;48.106;-1.682;2022-11-15T18:09:46;16.70;89.20
25140;DHT22;39015;48.106;-1.682;2022-11-15T18:12:12;16.70;89.20
25140;DHT22;39015;48.106;-1.682;2022-11-15T18:14:39;16.70;89.10
25140;DHT22;39015;48.106;-1.682;2022-11-15T18:17:08;16.60;89.00
25140;DHT22;39015;48.106;-1.682;2022-11-15T18:19:34;16.60;89.00
25140;DHT22;39015;48.106;-1.682;2022-11-15T18:22:02;16.60;88.90
25140;DHT22;39015;48.106;-1.682;2022-11-15T18:24:30;16.60;88.80
25140;DHT22;39015;48.106;-1.682;2022-11-15T18:27:00;16.60;88.80
25140;DHT22;39015;48.106;-1.682;2022-11-15T18:29:31;16.60;88.80
25140;DHT22;39015;48.106;-1.682;2022-11-15T18:31:58;16.60;88.70
25140;DHT22;39015;48.106;-1.682;2022-11-15T18:34:30;16.60;88.70
25140;DHT22;39015;48.106;-1.682;2022-11-15T18:36:58;16.60;88.70
25140;DHT22;39015;48.106;-1.682;2022-11-15T18:39:25;16.60;88.60
25140;DHT22;39015;48.106;-1.682;2022-11-15T18:41:52;16.60;88.50
25140;DHT22;39015;48.106;-1.682;2022-11-15T18:44:18;16.60;88.50
25140;DHT22;39015;48.106;-1.682;2022-11-15T18:46:45;16.60;88.50
25140;DHT22;39015;48.106;-1.682;2022-11-15T18:49:13;16.60;88.40
25140;DHT22;39015;48.106;-1.682;2022-11-15T18:51:42;16.60;88.40
25140;DHT22;39015;48.106;-1.682;2022-11-15T18:54:09;16.60;88.40
25140;DHT22;39015;48.106;-1.682;2022-11-15T18:56:36;16.50;88.30
25140;DHT22;39015;48.106;-1.682;2022-11-15T18:59:03;16.60;88.40
25140;DHT22;39015;48.106;-1.682;2022-11-15T19:01:30;16.60;88.40
25140;DHT22;39015;48.106;-1.682;2022-11-15T19:04:05;16.60;88.30
25140;DHT22;39015;48.106;-1.682;2022-11-15T19:06:35;16.60;88.30
25140;DHT22;39015;48.106;-1.682;2022-11-15T19:09:03;16.50;88.10
25140;DHT22;39015;48.106;-1.682;2022-11-15T19:11:31;16.60;88.30
25140;DHT22;39015;48.106;-1.682;2022-11-15T19:14:00;16.50;88.00
25140;DHT22;39015;48.106;-1.682;2022-11-15T19:16:28;16.50;88.00
25140;DHT22;39015;48.106;-1.682;2022-11-15T19:18:55;16.50;87.80
25140;DHT22;39015;48.106;-1.682;2022-11-15T19:21:22;16.50;87.70
25140;DHT22;39015;48.106;-1.682;2022-11-15T19:23:50;16.50;87.90
25140;DHT22;39015;48.106;-1.682;2022-11-15T19:26:20;16.50;87.70
25140;DHT22;39015;48.106;-1.682;2022-11-15T19:28:49;16.50;87.70
25140;DHT22;39015;48.106;-1.682;2022-11-15T19:31:16;16.50;87.60
25140;DHT22;39015;48.106;-1.682;2022-11-15T19:33:43;16.50;87.40
25140;DHT22;39015;48.106;-1.682;2022-11-15T19:36:11;16.50;87.30
25140;DHT22;39015;48.106;-1.682;2022-11-15T19:38:38;16.50;87.30
25140;DHT22;39015;48.106;-1.682;2022-11-15T19:41:08;16.40;87.20
25140;DHT22;39015;48.106;-1.682;2022-11-15T19:43:37;16.50;87.20
25140;DHT22;39015;48.106;-1.682;2022-11-15T19:46:06;16.50;87.30
25140;DHT22;39015;48.106;-1.682;2022-11-15T19:48:34;16.40;88.00
25140;DHT22;39015;48.106;-1.682;2022-11-15T19:51:02;16.40;86.90
25140;DHT22;39015;48.106;-1.682;2022-11-15T19:53:29;16.40;86.80
25140;DHT22;39015;48.106;-1.682;2022-11-15T19:55:57;16.40;86.70
25140;DHT22;39015;48.106;-1.682;2022-11-15T19:58:24;16.40;86.50
25140;DHT22;39015;48.106;-1.682;2022-11-15T20:00:57;16.40;86.50
25140;DHT22;39015;48.106;-1.682;2022-11-15T20:03:25;16.40;86.50
25140;DHT22;39015;48.106;-1.682;2022-11-15T20:05:56;16.40;86.20
25140;DHT22;39015;48.106;-1.682;2022-11-15T20:08:25;16.40;86.40
25140;DHT22;39015;48.106;-1.682;2022-11-15T20:10:52;16.30;86.10
25140;DHT22;39015;48.106;-1.682;2022-11-15T20:13:19;16.30;86.00
25140;DHT22;39015;48.106;-1.682;2022-11-15T20:15:46;16.30;85.80
25140;DHT22;39015;48.106;-1.682;2022-11-15T20:18:14;16.30;85.70
25140;DHT22;39015;48.106;-1.682;2022-11-15T20:21:01;16.30;85.50
25140;DHT22;39015;48.106;-1.682;2022-11-15T20:23:50;16.30;85.60
25140;DHT22;39015;48.106;-1.682;2022-11-15T20:26:37;16.30;85.40
25140;DHT22;39015;48.106;-1.682;2022-11-15T20:29:04;16.20;85.40
25140;DHT22;39015;48.106;-1.682;2022-11-15T20:31:33;16.30;85.40
25140;DHT22;39015;48.106;-1.682;2022-11-15T20:34:01;16.20;85.30
25140;DHT22;39015;48.106;-1.682;2022-11-15T20:36:28;16.20;85.20
25140;DHT22;39015;48.106;-1.682;2022-11-15T20:38:55;16.20;85.20
25140;DHT22;39015;48.106;-1.682;2022-11-15T20:41:22;16.20;85.10
25140;DHT22;39015;48.106;-1.682;2022-11-15T20:43:48;16.20;85.10
25140;DHT22;39015;48.106;-1.682;2022-11-15T20:46:16;16.20;85.30
25140;DHT22;39015;48.106;-1.682;2022-11-15T20:48:44;16.20;85.30
25140;DHT22;39015;48.106;-1.682;2022-11-15T20:51:12;16.20;85.30
25140;DHT22;39015;48.106;-1.682;2022-11-15T20:53:39;16.20;85.30
25140;DHT22;39015;48.106;-1.682;2022-11-15T20:56:08;16.20;85.40
25140;DHT22;39015;48.106;-1.682;2022-11-15T20:58:36;16.20;85.40
25140;DHT22;39015;48.106;-1.682;2022-11-15T21:01:03;16.20;85.40
25140;DHT22;39015;48.106;-1.682;2022-11-15T21:03:29;16.10;85.30
25140;DHT22;39015;48.106;-1.682;2022-11-15T21:05:56;16.20;85.40
25140;DHT22;39015;48.106;-1.682;2022-11-15T21:08:24;16.20;85.40
25140;DHT22;39015;48.106;-1.682;2022-11-15T21:10:52;16.20;85.50
25140;DHT22;39015;48.106;-1.682;2022-11-15T21:13:36;16.20;85.60
25140;DHT22;39015;48.106;-1.682;2022-11-15T21:16:04;16.10;85.40
25140;DHT22;39015;48.106;-1.682;2022-11-15T21:18:31;16.20;85.40
25140;DHT22;39015;48.106;-1.682;2022-11-15T21:21:00;16.20;85.50
25140;DHT22;39015;48.106;-1.682;2022-11-15T21:23:29;16.20;85.50
25140;DHT22;39015;48.106;-1.682;2022-11-15T21:25:56;16.20;85.30
25140;DHT22;39015;48.106;-1.682;2022-11-15T21:28:22;16.20;85.30
25140;DHT22;39015;48.106;-1.682;2022-11-15T21:30:52;16.20;85.30
25140;DHT22;39015;48.106;-1.682;2022-11-15T21:33:19;16.20;85.40
25140;DHT22;39015;48.106;-1.682;2022-11-15T21:35:48;16.20;85.30
25140;DHT22;39015;48.106;-1.682;2022-11-15T21:38:15;16.20;85.10
25140;DHT22;39015;48.106;-1.682;2022-11-15T21:40:48;16.20;85.10
25140;DHT22;39015;48.106;-1.682;2022-11-15T21:43:17;16.20;85.20
25140;DHT22;39015;48.106;-1.682;2022-11-15T21:45:54;16.20;85.00
25140;DHT22;39015;48.106;-1.682;2022-11-15T21:48:21;16.20;84.90
25140;DHT22;39015;48.106;-1.682;2022-11-15T21:50:53;16.20;84.80
25140;DHT22;39015;48.106;-1.682;2022-11-15T21:53:20;16.20;84.60
25140;DHT22;39015;48.106;-1.682;2022-11-15T21:55:48;16.20;84.70
25140;DHT22;39015;48.106;-1.682;2022-11-15T21:58:16;16.20;84.70
25140;DHT22;39015;48.106;-1.682;2022-11-15T22:00:43;16.20;84.40
25140;DHT22;39015;48.106;-1.682;2022-11-15T22:03:27;16.20;84.40
25140;DHT22;39015;48.106;-1.682;2022-11-15T22:05:54;16.10;84.40
25140;DHT22;39015;48.106;-1.682;2022-11-15T22:08:22;16.10;84.30
25140;DHT22;39015;48.106;-1.682;2022-11-15T22:10:50;16.10;84.00
25140;DHT22;39015;48.106;-1.682;2022-11-15T22:13:18;16.10;84.00
25140;DHT22;39015;48.106;-1.682;2022-11-15T22:15:45;16.10;83.80
25140;DHT22;39015;48.106;-1.682;2022-11-15T22:18:12;16.10;83.80
25140;DHT22;39015;48.106;-1.682;2022-11-15T22:20:39;16.10;83.80
25140;DHT22;39015;48.106;-1.682;2022-11-15T22:23:06;16.00;83.40
25140;DHT22;39015;48.106;-1.682;2022-11-15T22:25:33;16.00;83.30
25140;DHT22;39015;48.106;-1.682;2022-11-15T22:28:01;16.00;83.20
25140;DHT22;39015;48.106;-1.682;2022-11-15T22:30:31;16.00;83.10
25140;DHT22;39015;48.106;-1.682;2022-11-15T22:33:00;16.00;83.20
25140;DHT22;39015;48.106;-1.682;2022-11-15T22:35:27;16.00;82.90
25140;DHT22;39015;48.106;-1.682;2022-11-15T22:37:58;16.00;82.90
25140;DHT22;39015;48.106;-1.682;2022-11-15T22:40:28;16.00;82.90
